Time;durP1;ratioP1;P1;durP2;ratioP2;P2;SDS_P1;SDS_P2;PMS_P1;PMS_P2;Temp;Humidity;BMP_temperature;BMP_pressure;BME280_temperature;BME280_humidity;BME280_pressure;Samples;Min_cycle;Max_cycle;Signal;HPM_P1;HPM_P2
2021/04/05 00:00:19;;;;;;;33.13;16.33;;;5.80;99.90;;;;;;5017061;28;20641;-75
2021/04/05 00:02:45;;;;;;;40.57;16.23;;;5.90;99.90;;;;;;5016231;28;20195;-75
2021/04/05 00:05:14;;;;;;;39.80;17.50;;;5.80;99.90;;;;;;5017480;28;20226;-75
2021/04/05 00:07:46;;;;;;;43.80;18.70;;;5.70;99.90;;;;;;5016880;28;20168;-75
2021/04/05 00:10:15;;;;;;;37.77;18.43;;;5.70;99.90;;;;;;4999448;28;20191;-75
2021/04/05 00:12:41;;;;;;;52.67;18.90;;;5.60;99.90;;;;;;5016550;28;20684;-75
2021/04/05 00:15:08;;;;;;;41.77;19.43;;;5.60;99.90;;;;;;4999034;28;20312;-75
2021/04/05 00:17:36;;;;;;;52.23;20.37;;;5.50;99.90;;;;;;5016693;28;20200;-75
2021/04/05 00:20:09;;;;;;;34.17;18.17;;;5.50;99.90;;;;;;4999133;28;20637;-75
2021/04/05 00:22:37;;;;;;;43.37;18.70;;;5.40;99.90;;;;;;4998840;28;20176;-75
2021/04/05 00:25:04;;;;;;;38.00;18.80;;;5.40;99.90;;;;;;5016187;28;20177;-75
2021/04/05 00:27:30;;;;;;;48.23;18.80;;;5.40;99.90;;;;;;4998883;28;20172;-76
2021/04/05 00:29:56;;;;;;;38.03;17.97;;;5.40;99.90;;;;;;5016486;28;20176;-76
2021/04/05 00:32:21;;;;;;;52.73;18.63;;;5.30;99.90;;;;;;5016185;28;20522;-75
2021/04/05 00:34:47;;;;;;;41.33;17.60;;;5.30;99.90;;;;;;5016264;28;20246;-75
2021/04/05 00:37:12;;;;;;;42.80;17.27;;;5.20;99.90;;;;;;4998781;28;20708;-75
2021/04/05 00:39:38;;;;;;;36.53;16.23;;;5.20;99.90;;;;;;5016381;28;20187;-75
2021/04/05 00:42:05;;;;;;;46.13;16.20;;;5.10;99.90;;;;;;5015793;28;20224;-75
2021/04/05 00:44:31;;;;;;;45.90;16.10;;;5.10;99.90;;;;;;5016075;28;20164;-75
2021/04/05 00:46:57;;;;;;;45.00;16.90;;;5.20;99.90;;;;;;5015698;28;20548;-75
2021/04/05 00:49:22;;;;;;;45.43;15.60;;;5.20;99.90;;;;;;5016163;28;20172;-75
2021/04/05 00:51:48;;;;;;;41.63;16.50;;;5.20;99.90;;;;;;5015634;28;20177;-75
2021/04/05 00:54:14;;;;;;;35.93;15.07;;;5.30;99.90;;;;;;4998099;28;20648;-75
2021/04/05 00:56:40;;;;;;;39.07;15.53;;;5.30;99.90;;;;;;5015452;28;20279;-75
2021/04/05 00:59:05;;;;;;;40.73;15.17;;;5.30;99.90;;;;;;4998530;28;20184;-75
2021/04/05 01:01:32;;;;;;;44.63;15.23;;;5.40;99.90;;;;;;4998060;28;20168;-75
2021/04/05 01:03:57;;;;;;;44.10;14.33;;;5.40;99.90;;;;;;5015463;28;20173;-75
2021/04/05 01:06:32;;;;;;;41.80;15.37;;;5.50;99.90;;;;;;4997971;28;20189;-75
2021/04/05 01:08:58;;;;;;;36.03;14.03;;;5.50;99.90;;;;;;4997816;28;20182;-76
2021/04/05 01:11:29;;;;;;;44.87;14.40;;;5.50;99.90;;;;;;5015859;28;20232;-75
2021/04/05 01:13:56;;;;;;;30.97;14.43;;;5.50;99.90;;;;;;5015823;28;20172;-76
2021/04/05 01:16:25;;;;;;;45.97;15.67;;;5.60;99.90;;;;;;5015076;28;20193;-75
2021/04/05 01:18:51;;;;;;;33.93;14.70;;;5.60;99.90;;;;;;4997258;28;20234;-75
2021/04/05 01:21:17;;;;;;;35.20;14.97;;;5.60;99.90;;;;;;4996881;28;20560;-75
2021/04/05 01:23:43;;;;;;;46.03;16.37;;;5.50;99.90;;;;;;5015063;28;20208;-75
2021/04/05 01:26:08;;;;;;;37.63;15.30;;;5.50;99.90;;;;;;4997818;28;20227;-75
2021/04/05 01:28:34;;;;;;;36.80;15.40;;;5.40;99.90;;;;;;5014670;28;20192;-75
2021/04/05 01:31:01;;;;;;;45.37;15.73;;;5.30;99.90;;;;;;5015040;28;20173;-75
2021/04/05 01:33:33;;;;;;;43.87;16.80;;;5.30;99.90;;;;;;5014815;28;20169;-75
2021/04/05 01:36:01;;;;;;;42.10;15.80;;;5.20;99.90;;;;;;4997796;28;20227;-75
2021/04/05 01:38:30;;;;;;;40.60;16.97;;;5.20;99.90;;;;;;5014512;28;20629;-75
2021/04/05 01:40:59;;;;;;;50.57;15.47;;;5.10;99.90;;;;;;5014934;28;20696;-75
2021/04/05 01:43:24;;;;;;;42.87;17.23;;;5.10;99.90;;;;;;5014605;28;20169;-75
2021/04/05 01:45:54;;;;;;;43.33;15.57;;;5.10;99.90;;;;;;5015056;28;20728;-75
2021/04/05 01:48:22;;;;;;;35.33;15.80;;;5.10;99.90;;;;;;5014449;28;20168;-75
2021/04/05 01:50:48;;;;;;;54.57;17.20;;;5.10;99.90;;;;;;5014865;28;20180;-75
2021/04/05 01:53:18;;;;;;;47.40;16.77;;;5.10;99.90;;;;;;5014789;28;20173;-75
2021/04/05 01:55:45;;;;;;;40.73;16.63;;;5.10;99.90;;;;;;5014074;28;20169;-75
2021/04/05 01:58:10;;;;;;;50.20;16.67;;;5.10;99.90;;;;;;5014161;28;20653;-75
2021/04/05 02:00:39;;;;;;;44.50;17.20;;;5.10;99.90;;;;;;4997332;28;20215;-75
2021/04/05 02:03:10;;;;;;;43.87;18.47;;;5.20;99.90;;;;;;5014528;28;20193;-75
2021/04/05 02:05:57;;;;;;;39.90;18.00;;;5.20;99.90;;;;;;5014022;28;20231;-75
2021/04/05 02:08:25;;;;;;;52.80;20.27;;;5.30;99.90;;;;;;4983307;28;20184;-75
2021/04/05 02:10:52;;;;;;;46.23;19.33;;;5.40;99.90;;;;;;5014084;28;20260;-75
2021/04/05 02:13:25;;;;;;;57.27;20.77;;;5.40;99.90;;;;;;5014446;28;20557;-75
2021/04/05 02:15:52;;;;;;;47.13;20.93;;;5.50;99.90;;;;;;4996379;28;20537;-75
2021/04/05 02:18:19;;;;;;;53.43;21.50;;;5.50;99.90;;;;;;5013903;28;20207;-75
2021/04/05 02:20:46;;;;;;;53.17;22.90;;;5.60;99.90;;;;;;5014256;28;20196;-75
2021/04/05 02:23:12;;;;;;;65.37;23.60;;;5.60;99.90;;;;;;5014429;28;20185;-75
2021/04/05 02:26:06;;;;;;;60.27;23.30;;;5.50;99.90;;;;;;5014344;28;20169;-75
2021/04/05 02:28:25;;;;;;;49.70;23.93;;;5.70;99.90;;;;;;5013513;28;20181;-75
2021/04/05 02:30:52;;;;;;;66.23;24.50;;;5.80;99.90;;;;;;5013867;28;20188;-75
2021/04/05 02:33:17;;;;;;;57.13;24.00;;;5.80;99.90;;;;;;5014219;28;20175;-75
2021/04/05 02:35:43;;;;;;;68.77;27.80;;;5.80;99.90;;;;;;4996455;28;20181;-75
2021/04/05 02:38:09;;;;;;;71.67;25.77;;;5.90;99.90;;;;;;4996169;28;20637;-75
2021/04/05 02:40:35;;;;;;;72.33;26.40;;;5.90;99.90;;;;;;5013949;28;20215;-76
2021/04/05 02:43:02;;;;;;;67.50;26.23;;;6.00;99.90;;;;;;4996400;28;20568;-76
2021/04/05 02:45:27;;;;;;;73.23;27.50;;;6.10;99.90;;;;;;4996613;28;20625;-75
2021/04/05 02:47:56;;;;;;;64.93;27.47;;;6.10;99.90;;;;;;5013906;28;20180;-75
2021/04/05 02:50:25;;;;;;;67.63;27.93;;;6.20;99.90;;;;;;5013995;28;20609;-75
2021/04/05 02:52:52;;;;;;;70.87;28.53;;;6.30;99.90;;;;;;5013446;28;20629;-75
2021/04/05 02:55:18;;;;;;;76.40;28.43;;;6.30;99.90;;;;;;5013861;28;20173;-75
2021/04/05 02:57:45;;;;;;;74.00;28.37;;;6.30;99.90;;;;;;5013252;28;20548;-75
2021/04/05 03:00:15;;;;;;;75.53;29.93;;;6.30;99.90;;;;;;5013259;28;20629;-75
2021/04/05 03:02:45;;;;;;;81.30;28.67;;;6.30;99.90;;;;;;5013440;28;20177;-75
2021/04/05 03:05:11;;;;;;;72.10;29.33;;;6.30;99.90;;;;;;5013751;28;20578;-75
2021/04/05 03:07:37;;;;;;;70.90;29.57;;;6.40;99.90;;;;;;5013148;28;20192;-75
2021/04/05 03:10:05;;;;;;;79.37;30.27;;;6.40;99.90;;;;;;5013350;28;20318;-75
2021/04/05 03:12:36;;;;;;;76.47;27.90;;;6.40;99.90;;;;;;5013534;28;20169;-75
2021/04/05 03:15:10;;;;;;;79.80;31.47;;;6.50;99.90;;;;;;5013657;28;20204;-75
2021/04/05 03:17:37;;;;;;;90.00;32.30;;;6.50;99.90;;;;;;5023560;28;20208;-74
2021/04/05 03:20:07;;;;;;;78.63;30.37;;;6.50;99.90;;;;;;5028458;28;20181;-73
2021/04/05 03:22:34;;;;;;;86.70;32.10;;;6.60;99.90;;;;;;5027905;28;20180;-75
2021/04/05 03:25:00;;;;;;;74.63;30.10;;;6.60;99.90;;;;;;5018536;28;20177;-75
2021/04/05 03:27:25;;;;;;;80.40;31.87;;;6.60;99.90;;;;;;5013708;28;20191;-75
2021/04/05 03:29:51;;;;;;;93.00;31.20;;;6.70;99.90;;;;;;4995809;28;20250;-75
2021/04/05 03:32:20;;;;;;;70.40;31.87;;;6.70;99.90;;;;;;4979600;28;20713;-75
2021/04/05 03:34:57;;;;;;;77.23;31.00;;;6.70;99.90;;;;;;5013108;28;20180;-76
2021/04/05 03:37:25;;;;;;;73.77;32.60;;;6.70;99.90;;;;;;4976434;28;20185;-75
2021/04/05 03:39:51;;;;;;;76.37;33.57;;;6.80;99.90;;;;;;4993728;28;20181;-75
2021/04/05 03:42:28;;;;;;;82.20;32.27;;;6.80;99.90;;;;;;4976599;28;20170;-75
2021/04/05 03:45:07;;;;;;;85.90;33.60;;;6.60;99.90;;;;;;4995694;28;20169;-75
2021/04/05 03:48:02;;;;;;;73.23;31.47;;;6.70;99.90;;;;;;4976207;28;20585;-75
2021/04/05 03:51:11;;;;;;;88.50;33.93;;;6.70;99.90;;;;;;4993600;28;20181;-75
2021/04/05 03:53:49;;;;;;;79.60;31.70;;;6.80;99.90;;;;;;4993223;28;20192;-75
2021/04/05 03:56:21;;;;;;;82.90;33.70;;;6.90;99.90;;;;;;4986106;28;20169;-75
2021/04/05 03:58:50;;;;;;;88.63;33.60;;;6.90;99.90;;;;;;4995786;28;20656;-75
2021/04/05 04:01:24;;;;;;;86.17;32.70;;;7.00;99.90;;;;;;4995573;28;20187;-75
2021/04/05 04:04:09;;;;;;;88.17;33.83;;;7.10;99.90;;;;;;4995229;28;20545;-75
2021/04/05 04:09:06;;;;;;;73.67;32.17;;;7.20;99.90;;;;;;5013026;28;20185;-75
2021/04/05 04:11:34;;;;;;;92.53;35.00;;;7.20;99.90;;;;;;5012965;28;20183;-75
2021/04/05 04:14:03;;;;;;;85.13;32.63;;;7.20;99.90;;;;;;5013019;28;20177;-75
2021/04/05 04:16:30;;;;;;;87.47;33.47;;;7.20;99.90;;;;;;4995025;28;20262;-76
2021/04/05 04:18:58;;;;;;;73.30;32.23;;;7.20;99.90;;;;;;5013086;28;20181;-75
2021/04/05 04:21:25;;;;;;;87.47;32.47;;;7.20;99.90;;;;;;4998896;28;20731;-77
2021/04/05 04:23:51;;;;;;;86.03;34.13;;;7.20;99.90;;;;;;4999081;28;20196;-75
2021/04/05 04:26:16;;;;;;;78.30;32.30;;;7.20;99.90;;;;;;4999011;28;20629;-75
2021/04/05 04:28:45;;;;;;;79.83;33.60;;;7.20;99.90;;;;;;5016133;28;20176;-75
2021/04/05 04:31:11;;;;;;;86.00;34.60;;;7.20;99.90;;;;;;5016446;28;20620;-75
2021/04/05 04:33:38;;;;;;;80.30;32.87;;;7.20;99.90;;;;;;4998451;28;20263;-76
2021/04/05 04:36:05;;;;;;;92.73;34.17;;;7.10;99.90;;;;;;4998466;28;20169;-75
2021/04/05 04:38:31;;;;;;;79.83;33.87;;;7.10;99.90;;;;;;4998480;28;20232;-75
2021/04/05 04:40:56;;;;;;;90.97;35.17;;;7.20;99.90;;;;;;5016378;28;20660;-75
2021/04/05 04:43:22;;;;;;;88.73;35.33;;;7.20;99.90;;;;;;5016303;28;20177;-75
2021/04/05 04:45:48;;;;;;;75.90;34.47;;;7.20;99.90;;;;;;5016021;28;20264;-75
2021/04/05 04:48:14;;;;;;;84.47;34.53;;;7.10;99.90;;;;;;4997971;28;20208;-76
2021/04/05 04:50:41;;;;;;;91.33;34.13;;;7.20;99.90;;;;;;5015935;28;20177;-75
2021/04/05 04:53:06;;;;;;;70.10;33.28;;;7.20;99.90;;;;;;4998419;28;20192;-75
2021/04/05 04:55:33;;;;;;;83.43;33.42;;;7.20;99.90;;;;;;5015790;28;20197;-75
2021/04/05 04:58:01;;;;;;;74.27;33.60;;;7.20;99.90;;;;;;5016024;28;20307;-75
2021/04/05 05:00:30;;;;;;;69.47;32.97;;;7.20;99.90;;;;;;4997706;28;20172;-76
2021/04/05 05:02:57;;;;;;;77.67;33.53;;;7.30;99.90;;;;;;4998162;28;20173;-75
2021/04/05 05:05:25;;;;;;;74.43;32.87;;;7.30;99.90;;;;;;4998332;28;20626;-75
2021/04/05 05:07:51;;;;;;;66.50;33.60;;;7.40;99.90;;;;;;4998051;28;20267;-75
2021/04/05 05:10:17;;;;;;;73.60;32.80;;;7.50;99.90;;;;;;5015486;28;20165;-75
2021/04/05 05:12:44;;;;;;;84.97;33.73;;;7.50;99.90;;;;;;5015824;28;20230;-76
2021/04/05 05:15:12;;;;;;;86.47;33.80;;;7.60;99.90;;;;;;4997717;28;20181;-75
2021/04/05 05:17:43;;;;;;;81.13;32.77;;;7.60;99.90;;;;;;5014877;28;20205;-75
2021/04/05 05:20:10;;;;;;;80.10;33.57;;;7.70;99.90;;;;;;4997530;28;20600;-75
2021/04/05 05:22:40;;;;;;;62.45;30.35;;;7.60;99.90;;;;;;4996609;28;20183;-75
2021/04/05 05:25:07;;;;;;;77.13;31.15;;;7.70;99.90;;;;;;4997943;28;20533;-75
2021/04/05 05:27:37;;;;;;;79.22;31.17;;;7.70;99.90;;;;;;5015331;28;20183;-75
2021/04/05 05:30:06;;;;;;;91.50;32.97;;;7.70;99.90;;;;;;5015554;28;20199;-75
2021/04/05 05:32:32;;;;;;;81.17;30.70;;;7.70;99.90;;;;;;5015090;28;20172;-75
2021/04/05 05:34:58;;;;;;;72.43;30.23;;;7.80;99.90;;;;;;5015378;28;20268;-75
2021/04/05 05:37:23;;;;;;;80.75;32.72;;;7.70;99.90;;;;;;5015127;28;20623;-75
2021/04/05 05:39:49;;;;;;;81.57;31.67;;;7.70;99.90;;;;;;4997487;28;20681;-75
2021/04/05 05:42:24;;;;;;;71.40;31.55;;;7.70;99.90;;;;;;5015152;28;20181;-75
2021/04/05 05:45:01;;;;;;;79.88;29.88;;;7.70;99.90;;;;;;5014881;28;20180;-75
2021/04/05 05:47:30;;;;;;;70.38;29.58;;;7.80;99.90;;;;;;4997474;28;20535;-75
2021/04/05 05:50:13;;;;;;;68.50;29.48;;;7.90;99.90;;;;;;4997278;28;20652;-75
2021/04/05 05:53:11;;;;;;;61.03;28.07;;;8.00;99.90;;;;;;5014563;28;20176;-75
2021/04/05 05:55:46;;;;;;;78.80;28.77;;;8.10;99.90;;;;;;4986639;28;20185;-75
2021/04/05 05:58:38;;;;;;;71.50;28.05;;;8.20;99.90;;;;;;5014862;28;20290;-75
2021/04/05 06:01:37;;;;;;;75.07;27.17;;;8.20;99.90;;;;;;5014276;28;20184;-76
2021/04/05 06:04:28;;;;;;;62.80;26.88;;;8.30;99.90;;;;;;4986313;28;20181;-75
2021/04/05 06:07:03;;;;;;;63.47;26.50;;;8.40;99.90;;;;;;5014453;28;20295;-75
2021/04/05 06:10:01;;;;;;;62.60;26.67;;;8.50;99.90;;;;;;5014753;28;20633;-76
2021/04/05 06:12:29;;;;;;;64.30;24.02;;;8.50;99.90;;;;;;5014765;28;20219;-75
2021/04/05 06:15:11;;;;;;;57.47;25.42;;;8.80;99.90;;;;;;5013693;28;20552;-75
2021/04/05 06:17:57;;;;;;;57.80;23.77;;;8.90;99.90;;;;;;4996737;28;20208;-75
2021/04/05 06:20:53;;;;;;;49.78;22.10;;;8.90;99.90;;;;;;4996803;28;20188;-75
2021/04/05 06:23:41;;;;;;;52.30;22.63;;;9.00;99.90;;;;;;5014229;28;20171;-74
2021/04/05 06:26:44;;;;;;;47.67;20.48;;;9.00;99.90;;;;;;5004974;28;20553;-74
2021/04/05 06:29:35;;;;;;;59.17;21.75;;;9.10;99.90;;;;;;5014026;28;20243;-74
2021/04/05 06:32:41;;;;;;;58.83;20.98;;;9.40;99.90;;;;;;5014057;28;20425;-74
2021/04/05 06:35:26;;;;;;;59.13;19.55;;;9.40;99.90;;;;;;5013600;28;20179;-74
2021/04/05 06:38:19;;;;;;;35.08;19.35;;;9.50;99.90;;;;;;4996653;28;20303;-74
2021/04/05 06:40:46;;;;;;;50.70;19.63;;;9.30;99.90;;;;;;5014178;28;20173;-75
2021/04/05 06:43:41;;;;;;;58.35;21.45;;;9.30;99.90;;;;;;4996008;28;20169;-75
2021/04/05 06:46:45;;;;;;;46.20;19.85;;;9.30;99.90;;;;;;5013261;28;20260;-75
2021/04/05 06:49:48;;;;;;;44.22;18.63;;;9.30;99.90;;;;;;5010294;28;20178;-75
2021/04/05 06:52:36;;;;;;;46.63;18.63;;;9.30;99.90;;;;;;4996330;28;20227;-75
2021/04/05 06:55:07;;;;;;;43.85;19.38;;;9.50;99.90;;;;;;5013724;28;20223;-76
2021/04/05 06:57:36;;;;;;;46.67;18.63;;;9.50;99.90;;;;;;5009862;28;20204;-74
2021/04/05 07:00:19;;;;;;;47.42;18.65;;;9.50;99.90;;;;;;4995597;28;20657;-75
2021/04/05 07:03:15;;;;;;;51.10;19.05;;;9.40;99.90;;;;;;5013830;28;20201;-75
2021/04/05 07:05:50;;;;;;;50.13;17.95;;;9.30;99.90;;;;;;4995685;28;20165;-75
2021/04/05 07:08:33;;;;;;;34.55;16.55;;;9.20;99.90;;;;;;4995903;28;20180;-75
2021/04/05 07:11:11;;;;;;;45.67;17.63;;;9.30;99.90;;;;;;5013560;28;20235;-75
2021/04/05 07:13:52;;;;;;;38.20;16.45;;;9.30;99.90;;;;;;5013463;28;20283;-74
2021/04/05 07:16:39;;;;;;;36.58;17.77;;;9.30;99.90;;;;;;5013532;28;20533;-74
2021/04/05 07:19:43;;;;;;;37.60;18.33;;;9.30;99.90;;;;;;5013353;28;20547;-75
2021/04/05 07:22:38;;;;;;;45.70;16.58;;;9.20;99.90;;;;;;4920956;29;20277;-75
2021/04/05 07:25:12;;;;;;;39.80;16.63;;;9.20;99.90;;;;;;4933825;29;20171;-75
2021/04/05 07:27:44;;;;;;;46.30;17.70;;;9.10;99.90;;;;;;4991009;28;20637;-74
2021/04/05 07:30:21;;;;;;;41.92;17.33;;;9.10;99.90;;;;;;4994286;28;20169;-75
2021/04/05 07:33:23;;;;;;;25.38;11.70;;;9.00;99.90;;;;;;4976329;28;20177;-75
2021/04/05 07:36:51;;;;;;;21.90;10.70;;;8.80;99.90;;;;;;4980192;28;20178;-75
2021/04/05 07:39:34;;;;;;;14.18;7.53;;;8.40;99.90;;;;;;4925878;29;20206;-75
2021/04/05 07:42:20;;;;;;;13.55;5.50;;;8.20;99.90;;;;;;5013376;28;20176;-75
2021/04/05 07:44:49;;;;;;;14.00;6.10;;;8.10;99.90;;;;;;4995944;28;20569;-75
2021/04/05 07:47:28;;;;;;;11.03;4.87;;;8.10;99.90;;;;;;4995206;28;20287;-75
2021/04/05 07:50:14;;;;;;;21.60;5.00;;;8.20;99.90;;;;;;4995591;28;20586;-75
2021/04/05 07:53:12;;;;;;;10.63;4.17;;;8.30;99.90;;;;;;5013018;28;20246;-75
2021/04/05 07:55:39;;;;;;;16.80;4.87;;;8.30;99.90;;;;;;5016537;28;20169;-75
2021/04/05 07:58:23;;;;;;;13.32;4.28;;;8.30;99.90;;;;;;5017143;28;20200;-75
2021/04/05 08:01:02;;;;;;;19.02;4.85;;;8.40;99.90;;;;;;5016801;28;20180;-75
2021/04/05 08:03:54;;;;;;;13.50;4.28;;;8.40;99.90;;;;;;4999409;28;20637;-75
2021/04/05 08:06:28;;;;;;;13.80;4.45;;;8.50;99.90;;;;;;5016859;28;20201;-75
2021/04/05 08:08:58;;;;;;;20.63;5.90;;;8.60;99.90;;;;;;5016649;28;20176;-75
2021/04/05 08:12:01;;;;;;;18.17;6.22;;;8.70;99.90;;;;;;5016600;28;20172;-75
2021/04/05 08:14:50;;;;;;;26.35;6.18;;;8.70;99.90;;;;;;5016757;28;20218;-75
2021/04/05 08:17:21;;;;;;;23.83;6.20;;;8.80;99.90;;;;;;5013307;28;20301;-76
2021/04/05 08:20:03;;;;;;;19.05;6.18;;;8.80;99.90;;;;;;4998843;28;20173;-75
2021/04/05 08:22:38;;;;;;;26.10;6.38;;;8.70;99.90;;;;;;4998209;28;20184;-75
2021/04/05 08:25:41;;;;;;;12.82;3.80;;;8.50;99.90;;;;;;4999152;28;20210;-75
2021/04/05 08:28:54;;;;;;;5.57;2.30;;;8.00;99.90;;;;;;4995729;28;20276;-75
2021/04/05 08:31:35;;;;;;;2.67;1.20;;;7.40;99.90;;;;;;4982326;28;20197;-75
2021/04/05 08:34:33;;;;;;;10.77;1.93;;;7.00;99.90;;;;;;5016249;28;20185;-75
2021/04/05 08:37:45;;;;;;;8.20;1.83;;;6.80;99.90;;;;;;5016319;28;20291;-76
2021/04/05 08:40:35;;;;;;;3.70;1.53;;;6.70;99.90;;;;;;4997267;28;20183;-75
2021/04/05 08:43:21;;;;;;;11.50;2.10;;;6.70;99.90;;;;;;5015896;28;20211;-74
2021/04/05 08:45:51;;;;;;;17.30;2.53;;;6.50;99.90;;;;;;5015943;28;20244;-74
2021/04/05 08:48:19;;;;;;;18.70;2.10;;;6.40;99.90;;;;;;5015651;28;20184;-74
2021/04/05 08:50:58;;;;;;;14.00;2.23;;;6.40;99.90;;;;;;4998122;28;20661;-76
2021/04/05 08:53:25;;;;;;;23.83;3.27;;;6.40;99.90;;;;;;5016115;28;20188;-76
2021/04/05 08:55:56;;;;;;;22.40;2.77;;;6.50;99.90;;;;;;5015796;28;20233;-75
2021/04/05 08:58:38;;;;;;;14.13;2.50;;;6.40;99.90;;;;;;5015907;28;20300;-75
2021/04/05 09:01:07;;;;;;;24.63;3.17;;;6.30;99.90;;;;;;5016359;28;20196;-75
2021/04/05 09:03:35;;;;;;;23.97;3.80;;;6.20;99.90;;;;;;5015488;28;20203;-74
2021/04/05 09:06:07;;;;;;;25.80;4.13;;;6.10;99.90;;;;;;5015017;28;20660;-75
2021/04/05 09:08:34;;;;;;;34.87;4.20;;;6.20;99.90;;;;;;4997668;28;20177;-75
2021/04/05 09:11:05;;;;;;;19.43;3.53;;;6.30;99.90;;;;;;4998307;28;20538;-75
2021/04/05 09:13:37;;;;;;;30.33;4.73;;;6.40;99.90;;;;;;4984961;28;20164;-75
2021/04/05 09:16:24;;;;;;;23.07;3.93;;;6.50;99.90;;;;;;5015785;28;20626;-75
2021/04/05 09:19:08;;;;;;;19.67;3.60;;;6.50;99.90;;;;;;5015734;28;20264;-74
2021/04/05 09:22:04;;;;;;;26.10;4.73;;;6.60;99.90;;;;;;5016231;28;20196;-74
2021/04/05 09:25:05;;;;;;;23.13;4.43;;;6.50;99.90;;;;;;5007834;28;20184;-75
2021/04/05 09:27:33;;;;;;;29.07;4.47;;;6.60;99.90;;;;;;5027216;28;20266;-75
2021/04/05 09:30:28;;;;;;;18.00;3.20;;;6.60;99.90;;;;;;5030703;28;20175;-75
2021/04/05 09:33:00;;;;;;;13.43;3.10;;;6.40;99.90;;;;;;5012482;28;20181;-75
2021/04/05 09:35:46;;;;;;;26.50;3.00;;;6.40;99.90;;;;;;5012674;28;20331;-74
2021/04/05 09:38:31;;;;;;;17.57;3.33;;;6.40;99.90;;;;;;5028870;28;20199;-75
2021/04/05 09:41:15;;;;;;;14.13;2.90;;;6.40;99.90;;;;;;5025080;28;20230;-74
2021/04/05 09:44:17;;;;;;;11.83;3.00;;;6.60;99.90;;;;;;5015338;28;20676;-74
2021/04/05 09:46:59;;;;;;;28.30;4.60;;;6.90;99.90;;;;;;5014604;28;20259;-74
2021/04/05 09:49:31;;;;;;;20.00;3.47;;;7.00;99.90;;;;;;5015560;28;20165;-75
2021/04/05 09:52:14;;;;;;;18.03;3.00;;;6.90;99.90;;;;;;5015083;28;20204;-74
2021/04/05 09:54:50;;;;;;;23.77;3.47;;;7.00;99.90;;;;;;4997342;28;20227;-74
2021/04/05 09:57:49;;;;;;;33.77;4.60;;;6.90;99.90;;;;;;5015094;28;20200;-74
2021/04/05 10:00:18;;;;;;;22.13;3.47;;;6.80;99.90;;;;;;4995336;28;20178;-74
2021/04/05 10:02:54;;;;;;;16.13;3.40;;;7.00;99.90;;;;;;4995121;28;20654;-74
2021/04/05 10:05:22;;;;;;;13.63;2.70;;;7.40;99.90;;;;;;5001398;28;20199;-75
2021/04/05 10:07:50;;;;;;;10.07;2.83;;;7.50;99.90;;;;;;4996801;28;20268;-76
2021/04/05 10:10:17;;;;;;;17.70;3.47;;;7.50;99.90;;;;;;5013783;28;20179;-75
2021/04/05 10:12:45;;;;;;;11.57;2.63;;;8.00;99.90;;;;;;5016143;28;20231;-74
2021/04/05 10:15:12;;;;;;;10.10;2.80;;;8.50;99.90;;;;;;5013472;28;20185;-74
2021/04/05 10:17:43;;;;;;;17.50;3.27;;;9.30;99.90;;;;;;4952768;28;20246;-74
2021/04/05 10:20:10;;;;;;;15.57;2.97;;;9.60;99.90;;;;;;4952701;29;20198;-74
2021/04/05 10:22:45;;;;;;;10.73;2.95;;;9.50;99.90;;;;;;4953469;29;20553;-74
2021/04/05 10:25:13;;;;;;;14.20;3.33;;;9.40;99.90;;;;;;4953420;29;20171;-74
2021/04/05 10:27:40;;;;;;;9.50;2.35;;;8.70;99.90;;;;;;4953444;29;20187;-73
2021/04/05 10:30:09;;;;;;;13.37;2.67;;;8.40;99.90;;;;;;4952363;29;20269;-74
2021/04/05 10:32:41;;;;;;;18.33;3.13;;;8.30;99.90;;;;;;4953319;29;20230;-73
2021/04/05 10:35:10;;;;;;;15.95;2.85;;;8.80;99.90;;;;;;4953702;29;20171;-74
2021/04/05 10:37:43;;;;;;;8.63;1.58;;;9.30;99.90;;;;;;4953285;29;20703;-73
2021/04/05 10:40:14;;;;;;;11.25;2.35;;;9.90;99.90;;;;;;4951781;29;20174;-73
2021/04/05 10:42:49;;;;;;;8.90;1.98;;;10.20;99.90;;;;;;4953262;29;20671;-73
2021/04/05 10:45:27;;;;;;;6.55;2.42;;;10.20;99.90;;;;;;4952820;29;20182;-74
2021/04/05 10:48:03;;;;;;;18.52;2.90;;;10.40;99.90;;;;;;4964971;28;20264;-74
2021/04/05 10:50:32;;;;;;;14.80;2.33;;;10.40;99.90;;;;;;5013435;28;20169;-74
2021/04/05 10:53:14;;;;;;;13.70;3.13;;;10.50;99.90;;;;;;5013624;28;20180;-74
2021/04/05 10:55:44;;;;;;;9.40;2.35;;;10.00;99.90;;;;;;5013078;28;20169;-74
2021/04/05 10:58:17;;;;;;;13.60;2.90;;;9.00;99.90;;;;;;5013188;28;20287;-73
2021/04/05 11:00:50;;;;;;;13.83;2.27;;;8.20;99.90;;;;;;5013840;28;20200;-73
2021/04/05 11:03:23;;;;;;;16.90;2.07;;;7.90;99.90;;;;;;5014028;28;20165;-73
2021/04/05 11:05:57;;;;;;;21.93;3.00;;;7.80;99.90;;;;;;5013464;28;20177;-73
2021/04/05 11:08:32;;;;;;;14.67;2.60;;;8.00;99.90;;;;;;5013731;28;20203;-73
2021/04/05 11:11:06;;;;;;;20.20;3.27;;;8.30;99.90;;;;;;4995564;28;20169;-73
2021/04/05 11:13:36;;;;;;;12.47;2.70;;;8.10;99.90;;;;;;5013571;28;20200;-74
2021/04/05 11:16:10;;;;;;;17.90;3.33;;;7.70;99.90;;;;;;5013559;28;20160;-73
2021/04/05 11:18:45;;;;;;;21.57;2.73;;;7.90;99.90;;;;;;4996031;28;20218;-73
2021/04/05 11:21:13;;;;;;;15.97;3.07;;;8.40;99.90;;;;;;5013312;28;20196;-74
2021/04/05 11:23:40;;;;;;;17.37;2.93;;;8.80;99.90;;;;;;5013504;28;20614;-73
2021/04/05 11:26:07;;;;;;;7.60;2.03;;;8.60;99.90;;;;;;4995250;28;20180;-73
2021/04/05 11:28:34;;;;;;;15.33;2.13;;;8.80;99.90;;;;;;4996117;28;20177;-73
2021/04/05 11:31:11;;;;;;;9.93;2.40;;;9.40;99.90;;;;;;5013066;28;20263;-74
2021/04/05 11:33:49;;;;;;;19.92;2.70;;;11.80;99.90;;;;;;5007800;28;20192;-76
2021/04/05 11:36:16;;;;;;;11.30;2.78;;;15.20;99.90;;;;;;5012688;28;20164;-75
2021/04/05 11:38:47;;;;;;;8.73;2.58;;;17.00;99.90;;;;;;5012644;28;20287;-75
2021/04/05 11:41:17;;;;;;;15.60;2.78;;;16.40;99.90;;;;;;4994909;28;20176;-77
2021/04/05 11:43:48;;;;;;;9.90;2.40;;;15.30;99.60;;;;;;5013239;28;20244;-75
2021/04/05 11:46:15;;;;;;;16.48;3.28;;;13.40;99.90;;;;;;5012880;28;20252;-75
2021/04/05 11:48:43;;;;;;;12.75;2.78;;;12.00;99.90;;;;;;5012449;28;20168;-76
2021/04/05 11:51:10;;;;;;;13.30;2.35;;;11.20;99.90;;;;;;5012856;28;20181;-75
2021/04/05 11:53:52;;;;;;;4.38;1.90;;;10.30;99.90;;;;;;4994969;28;20189;-75
2021/04/05 11:56:22;;;;;;;12.10;3.08;;;10.50;99.90;;;;;;5012971;28;20180;-76
2021/04/05 11:59:00;;;;;;;10.23;2.08;;;10.80;99.90;;;;;;4995396;28;20207;-76
2021/04/05 12:01:31;;;;;;;30.40;6.32;;;12.00;99.90;;;;;;4994413;28;20191;-76
2021/04/05 12:04:02;;;;;;;13.38;3.25;;;12.40;99.40;;;;;;5012460;28;20264;-75
2021/04/05 12:07:05;;;;;;;18.13;3.00;;;12.10;99.40;;;;;;4995190;28;20176;-76
2021/04/05 12:09:44;;;;;;;12.35;2.47;;;11.60;98.50;;;;;;4971581;28;20187;-76
2021/04/05 12:12:37;;;;;;;11.18;2.35;;;10.80;99.90;;;;;;5012592;28;20524;-76
2021/04/05 12:15:07;;;;;;;12.77;2.35;;;10.20;99.90;;;;;;4995254;28;20180;-76
2021/04/05 12:17:33;;;;;;;15.98;2.85;;;9.90;99.90;;;;;;5012093;28;20204;-76
2021/04/05 12:20:01;;;;;;;14.98;2.55;;;9.80;99.90;;;;;;5012596;28;20184;-76
2021/04/05 12:22:32;;;;;;;25.67;3.78;;;9.60;99.90;;;;;;5012890;28;20180;-76
2021/04/05 12:25:01;;;;;;;13.32;2.95;;;9.90;99.90;;;;;;5011859;28;20537;-76
2021/04/05 12:27:34;;;;;;;10.38;2.60;;;9.90;99.90;;;;;;5013118;28;20173;-76
2021/04/05 12:30:09;;;;;;;12.55;2.45;;;9.70;99.90;;;;;;4995411;28;20180;-76
2021/04/05 12:32:38;;;;;;;12.98;2.30;;;9.40;99.90;;;;;;5012584;28;20641;-76
2021/04/05 12:35:07;;;;;;;8.30;2.38;;;9.60;99.90;;;;;;5012201;28;20183;-76
2021/04/05 12:37:34;;;;;;;14.23;2.03;;;10.30;99.50;;;;;;4993230;28;20205;-76
2021/04/05 12:40:02;;;;;;;16.38;2.55;;;10.00;99.70;;;;;;4976299;28;20185;-76
2021/04/05 12:42:31;;;;;;;9.75;2.10;;;9.90;99.30;;;;;;5013985;28;20176;-76
2021/04/05 12:45:00;;;;;;;10.68;1.95;;;10.10;99.90;;;;;;5015885;28;20212;-76
2021/04/05 12:47:37;;;;;;;7.35;2.67;;;10.20;99.90;;;;;;5009620;28;20185;-76
2021/04/05 12:50:07;;;;;;;5.40;2.28;;;10.70;99.50;;;;;;4998353;28;20545;-76
2021/04/05 12:52:38;;;;;;;6.80;1.95;;;11.20;99.60;;;;;;5015875;28;20583;-76
2021/04/05 12:55:16;;;;;;;11.32;2.38;;;11.10;98.50;;;;;;5015317;28;20173;-76
2021/04/05 12:57:42;;;;;;;10.30;2.15;;;10.10;98.20;;;;;;4992170;28;20199;-76
2021/04/05 13:00:20;;;;;;;8.45;2.50;;;9.20;98.20;;;;;;4998056;28;20177;-76
2021/04/05 13:03:13;;;;;;;9.35;2.20;;;8.80;99.50;;;;;;4997872;28;20172;-75
2021/04/05 13:05:57;;;;;;;10.30;2.37;;;8.90;99.50;;;;;;5002205;28;20546;-77
2021/04/05 13:08:29;;;;;;;8.40;1.85;;;9.10;99.90;;;;;;4994830;28;20177;-75
2021/04/05 13:11:17;;;;;;;7.82;2.03;;;9.40;99.80;;;;;;4996005;28;20232;-75
2021/04/05 13:13:56;;;;;;;9.65;2.20;;;9.50;97.80;;;;;;4996096;28;20252;-76
2021/04/05 13:16:32;;;;;;;7.60;2.30;;;9.40;97.30;;;;;;5003447;28;20165;-75
2021/04/05 13:19:03;;;;;;;12.20;2.28;;;9.40;96.80;;;;;;4995828;28;20263;-75